sensor_id;sensor_type;location;lat;lon;timestamp;temperature;humidity
11532;DHT22;5822;51.000;5.874;2024-03-25T00:00:11;8.70;99.90
11532;DHT22;5822;51.000;5.874;2024-03-25T00:02:41;8.80;99.90
11532;DHT22;5822;51.000;5.874;2024-03-25T00:05:07;8.80;99.90
11532;DHT22;5822;51.000;5.874;2024-03-25T00:07:38;8.80;99.90
11532;DHT22;5822;51.000;5.874;2024-03-25T00:10:04;8.80;99.90
11532;DHT22;5822;51.000;5.874;2024-03-25T00:12:32;8.80;99.90
11532;DHT22;5822;51.000;5.874;2024-03-25T00:14:57;8.80;99.90
11532;DHT22;5822;51.000;5.874;2024-03-25T00:17:23;8.80;99.90
11532;DHT22;5822;51.000;5.874;2024-03-25T00:19:49;8.80;99.90
11532;DHT22;5822;51.000;5.874;2024-03-25T00:22:21;8.70;99.90
11532;DHT22;5822;51.000;5.874;2024-03-25T00:24:48;8.70;99.90
11532;DHT22;5822;51.000;5.874;2024-03-25T00:27:17;8.70;99.90
11532;DHT22;5822;51.000;5.874;2024-03-25T00:29:43;8.70;99.90
11532;DHT22;5822;51.000;5.874;2024-03-25T00:32:09;8.70;99.90
11532;DHT22;5822;51.000;5.874;2024-03-25T00:34:36;8.70;99.90
11532;DHT22;5822;51.000;5.874;2024-03-25T00:37:02;8.70;99.90
11532;DHT22;5822;51.000;5.874;2024-03-25T00:39:29;8.70;99.90
11532;DHT22;5822;51.000;5.874;2024-03-25T00:41:57;8.70;99.90
11532;DHT22;5822;51.000;5.874;2024-03-25T00:44:23;8.70;99.90
11532;DHT22;5822;51.000;5.874;2024-03-25T00:46:49;8.60;99.90
11532;DHT22;5822;51.000;5.874;2024-03-25T00:49:15;8.60;99.90
11532;DHT22;5822;51.000;5.874;2024-03-25T00:51:40;8.60;99.90
11532;DHT22;5822;51.000;5.874;2024-03-25T00:54:06;8.60;99.90
11532;DHT22;5822;51.000;5.874;2024-03-25T00:56:32;8.60;99.90
11532;DHT22;5822;51.000;5.874;2024-03-25T00:58:58;8.60;99.90
11532;DHT22;5822;51.000;5.874;2024-03-25T01:01:30;8.60;99.90
11532;DHT22;5822;51.000;5.874;2024-03-25T01:03:57;8.50;99.90
11532;DHT22;5822;51.000;5.874;2024-03-25T01:06:22;8.50;99.90
11532;DHT22;5822;51.000;5.874;2024-03-25T01:08:49;8.60;99.90
11532;DHT22;5822;51.000;5.874;2024-03-25T01:11:14;8.50;99.90
11532;DHT22;5822;51.000;5.874;2024-03-25T01:13:40;8.50;99.90
11532;DHT22;5822;51.000;5.874;2024-03-25T01:16:07;8.50;99.90
11532;DHT22;5822;51.000;5.874;2024-03-25T01:18:33;8.50;99.90
11532;DHT22;5822;51.000;5.874;2024-03-25T01:20:59;8.50;99.90
11532;DHT22;5822;51.000;5.874;2024-03-25T01:23:25;8.50;99.90
11532;DHT22;5822;51.000;5.874;2024-03-25T01:25:50;8.60;99.90
11532;DHT22;5822;51.000;5.874;2024-03-25T01:28:16;8.50;99.90
11532;DHT22;5822;51.000;5.874;2024-03-25T01:30:42;8.60;99.90
11532;DHT22;5822;51.000;5.874;2024-03-25T01:33:07;8.50;99.90
11532;DHT22;5822;51.000;5.874;2024-03-25T01:35:34;8.60;99.90
11532;DHT22;5822;51.000;5.874;2024-03-25T01:37:59;8.60;99.90
11532;DHT22;5822;51.000;5.874;2024-03-25T01:40:25;8.60;99.90
11532;DHT22;5822;51.000;5.874;2024-03-25T01:43:01;8.60;99.90
11532;DHT22;5822;51.000;5.874;2024-03-25T01:45:29;8.60;99.90
11532;DHT22;5822;51.000;5.874;2024-03-25T01:47:56;8.60;99.90
11532;DHT22;5822;51.000;5.874;2024-03-25T01:50:23;8.50;99.90
11532;DHT22;5822;51.000;5.874;2024-03-25T01:52:49;8.50;99.90
11532;DHT22;5822;51.000;5.874;2024-03-25T01:55:18;8.60;99.90
11532;DHT22;5822;51.000;5.874;2024-03-25T01:57:46;8.60;99.90
11532;DHT22;5822;51.000;5.874;2024-03-25T02:00:13;8.60;99.90
11532;DHT22;5822;51.000;5.874;2024-03-25T02:02:40;8.60;99.90
11532;DHT22;5822;51.000;5.874;2024-03-25T02:05:16;8.50;99.90
11532;DHT22;5822;51.000;5.874;2024-03-25T02:07:43;8.50;99.90
11532;DHT22;5822;51.000;5.874;2024-03-25T02:10:09;8.60;99.90
11532;DHT22;5822;51.000;5.874;2024-03-25T02:12:36;8.50;99.90
11532;DHT22;5822;51.000;5.874;2024-03-25T02:15:04;8.50;99.90
11532;DHT22;5822;51.000;5.874;2024-03-25T02:17:30;8.50;99.90
11532;DHT22;5822;51.000;5.874;2024-03-25T02:19:56;8.50;99.90
11532;DHT22;5822;51.000;5.874;2024-03-25T02:22:22;8.50;99.90
11532;DHT22;5822;51.000;5.874;2024-03-25T02:24:50;8.50;99.90
11532;DHT22;5822;51.000;5.874;2024-03-25T02:27:18;8.40;99.90
11532;DHT22;5822;51.000;5.874;2024-03-25T02:29:44;8.40;99.90
11532;DHT22;5822;51.000;5.874;2024-03-25T02:32:10;8.40;99.90
11532;DHT22;5822;51.000;5.874;2024-03-25T02:34:44;8.40;99.90
11532;DHT22;5822;51.000;5.874;2024-03-25T02:37:10;8.50;99.90
11532;DHT22;5822;51.000;5.874;2024-03-25T02:39:37;8.50;99.90
11532;DHT22;5822;51.000;5.874;2024-03-25T02:42:03;8.50;99.90
11532;DHT22;5822;51.000;5.874;2024-03-25T02:44:30;8.50;99.90
11532;DHT22;5822;51.000;5.874;2024-03-25T02:46:56;8.50;99.90
11532;DHT22;5822;51.000;5.874;2024-03-25T02:49:22;8.50;99.90
11532;DHT22;5822;51.000;5.874;2024-03-25T02:51:48;8.60;99.90
11532;DHT22;5822;51.000;5.874;2024-03-25T02:54:13;8.60;99.90
11532;DHT22;5822;51.000;5.874;2024-03-25T02:56:40;8.50;99.90
11532;DHT22;5822;51.000;5.874;2024-03-25T02:59:06;8.50;99.90
11532;DHT22;5822;51.000;5.874;2024-03-25T03:01:32;8.40;99.90
11532;DHT22;5822;51.000;5.874;2024-03-25T03:03:58;8.40;99.90
11532;DHT22;5822;51.000;5.874;2024-03-25T03:06:23;8.40;99.90
11532;DHT22;5822;51.000;5.874;2024-03-25T03:08:49;8.30;99.90
11532;DHT22;5822;51.000;5.874;2024-03-25T03:11:15;8.40;99.90
11532;DHT22;5822;51.000;5.874;2024-03-25T03:13:40;8.40;99.90
11532;DHT22;5822;51.000;5.874;2024-03-25T03:16:06;8.30;99.90
11532;DHT22;5822;51.000;5.874;2024-03-25T03:18:32;8.30;99.90
11532;DHT22;5822;51.000;5.874;2024-03-25T03:20:57;8.20;99.90
11532;DHT22;5822;51.000;5.874;2024-03-25T03:23:23;8.20;99.90
11532;DHT22;5822;51.000;5.874;2024-03-25T03:25:49;8.20;99.90
11532;DHT22;5822;51.000;5.874;2024-03-25T03:28:15;8.10;99.90
11532;DHT22;5822;51.000;5.874;2024-03-25T03:30:41;8.20;99.90
11532;DHT22;5822;51.000;5.874;2024-03-25T03:33:07;8.20;99.90
11532;DHT22;5822;51.000;5.874;2024-03-25T03:35:33;8.20;99.90
11532;DHT22;5822;51.000;5.874;2024-03-25T03:37:59;8.20;99.90
11532;DHT22;5822;51.000;5.874;2024-03-25T03:40:24;8.20;99.90
11532;DHT22;5822;51.000;5.874;2024-03-25T03:42:50;8.20;99.90
11532;DHT22;5822;51.000;5.874;2024-03-25T03:45:16;8.30;99.90
11532;DHT22;5822;51.000;5.874;2024-03-25T03:47:41;8.20;99.90
11532;DHT22;5822;51.000;5.874;2024-03-25T03:50:07;8.10;99.90
11532;DHT22;5822;51.000;5.874;2024-03-25T03:52:33;8.10;99.90
11532;DHT22;5822;51.000;5.874;2024-03-25T03:54:59;8.10;99.90
11532;DHT22;5822;51.000;5.874;2024-03-25T03:57:25;8.10;99.90
11532;DHT22;5822;51.000;5.874;2024-03-25T03:59:53;8.00;99.90
11532;DHT22;5822;51.000;5.874;2024-03-25T04:02:20;8.00;99.90
11532;DHT22;5822;51.000;5.874;2024-03-25T04:04:46;8.00;99.90
11532;DHT22;5822;51.000;5.874;2024-03-25T04:07:11;8.00;99.90
11532;DHT22;5822;51.000;5.874;2024-03-25T04:09:37;8.00;99.90
11532;DHT22;5822;51.000;5.874;2024-03-25T04:12:03;8.00;99.90
11532;DHT22;5822;51.000;5.874;2024-03-25T04:14:28;7.90;99.90
11532;DHT22;5822;51.000;5.874;2024-03-25T04:16:54;7.90;99.90
11532;DHT22;5822;51.000;5.874;2024-03-25T04:19:23;7.90;99.90
11532;DHT22;5822;51.000;5.874;2024-03-25T04:21:49;8.00;99.90
11532;DHT22;5822;51.000;5.874;2024-03-25T04:24:15;8.00;99.90
11532;DHT22;5822;51.000;5.874;2024-03-25T04:26:40;7.90;99.90
11532;DHT22;5822;51.000;5.874;2024-03-25T04:29:06;7.90;99.90
11532;DHT22;5822;51.000;5.874;2024-03-25T04:31:31;7.90;99.90
11532;DHT22;5822;51.000;5.874;2024-03-25T04:33:57;7.90;99.90
11532;DHT22;5822;51.000;5.874;2024-03-25T04:36:23;7.90;99.90
11532;DHT22;5822;51.000;5.874;2024-03-25T04:38:48;8.00;99.90
11532;DHT22;5822;51.000;5.874;2024-03-25T04:41:15;8.00;99.90
11532;DHT22;5822;51.000;5.874;2024-03-25T04:43:40;7.90;99.90
11532;DHT22;5822;51.000;5.874;2024-03-25T04:46:06;8.00;99.90
11532;DHT22;5822;51.000;5.874;2024-03-25T04:48:32;7.90;99.90
11532;DHT22;5822;51.000;5.874;2024-03-25T04:50:57;7.90;99.90
11532;DHT22;5822;51.000;5.874;2024-03-25T04:53:23;8.00;99.90
11532;DHT22;5822;51.000;5.874;2024-03-25T04:55:48;7.90;99.90
11532;DHT22;5822;51.000;5.874;2024-03-25T04:58:14;7.90;99.90
11532;DHT22;5822;51.000;5.874;2024-03-25T05:00:40;8.00;99.90
11532;DHT22;5822;51.000;5.874;2024-03-25T05:03:05;8.00;99.90
11532;DHT22;5822;51.000;5.874;2024-03-25T05:05:31;7.90;99.90
11532;DHT22;5822;51.000;5.874;2024-03-25T05:07:56;7.80;99.90
11532;DHT22;5822;51.000;5.874;2024-03-25T05:10:22;7.90;99.90
11532;DHT22;5822;51.000;5.874;2024-03-25T05:12:47;7.90;99.90
11532;DHT22;5822;51.000;5.874;2024-03-25T05:15:15;7.90;99.90
11532;DHT22;5822;51.000;5.874;2024-03-25T05:17:41;7.80;99.90
11532;DHT22;5822;51.000;5.874;2024-03-25T05:20:07;7.80;99.90
11532;DHT22;5822;51.000;5.874;2024-03-25T05:22:32;7.80;99.90
11532;DHT22;5822;51.000;5.874;2024-03-25T05:24:58;7.80;99.90
11532;DHT22;5822;51.000;5.874;2024-03-25T05:27:23;7.80;99.90
11532;DHT22;5822;51.000;5.874;2024-03-25T05:29:49;7.80;99.90
11532;DHT22;5822;51.000;5.874;2024-03-25T05:32:15;7.80;99.90
11532;DHT22;5822;51.000;5.874;2024-03-25T05:34:42;7.70;99.90
11532;DHT22;5822;51.000;5.874;2024-03-25T05:37:08;7.70;99.90
11532;DHT22;5822;51.000;5.874;2024-03-25T05:39:34;7.70;99.90
11532;DHT22;5822;51.000;5.874;2024-03-25T05:41:59;7.80;99.90
11532;DHT22;5822;51.000;5.874;2024-03-25T05:44:25;7.80;99.90
11532;DHT22;5822;51.000;5.874;2024-03-25T05:46:51;7.80;99.90
11532;DHT22;5822;51.000;5.874;2024-03-25T05:49:17;7.80;99.90
11532;DHT22;5822;51.000;5.874;2024-03-25T05:51:43;7.80;99.90
11532;DHT22;5822;51.000;5.874;2024-03-25T05:54:08;7.80;99.90
11532;DHT22;5822;51.000;5.874;2024-03-25T05:56:34;7.80;99.90
11532;DHT22;5822;51.000;5.874;2024-03-25T05:59:00;7.80;99.90
11532;DHT22;5822;51.000;5.874;2024-03-25T06:01:26;7.80;99.90
11532;DHT22;5822;51.000;5.874;2024-03-25T06:03:52;7.90;99.90
11532;DHT22;5822;51.000;5.874;2024-03-25T06:06:18;7.90;99.90
11532;DHT22;5822;51.000;5.874;2024-03-25T06:08:44;7.90;99.90
11532;DHT22;5822;51.000;5.874;2024-03-25T06:11:10;7.90;99.90
11532;DHT22;5822;51.000;5.874;2024-03-25T06:13:35;8.00;99.90
11532;DHT22;5822;51.000;5.874;2024-03-25T06:16:01;8.00;99.90
11532;DHT22;5822;51.000;5.874;2024-03-25T06:18:27;8.00;99.90
11532;DHT22;5822;51.000;5.874;2024-03-25T06:20:52;8.00;99.90
11532;DHT22;5822;51.000;5.874;2024-03-25T06:23:24;8.00;99.90
11532;DHT22;5822;51.000;5.874;2024-03-25T06:25:51;8.10;99.90
11532;DHT22;5822;51.000;5.874;2024-03-25T06:28:17;8.10;99.90
11532;DHT22;5822;51.000;5.874;2024-03-25T06:30:44;8.10;99.90
11532;DHT22;5822;51.000;5.874;2024-03-25T06:33:28;8.10;99.90
11532;DHT22;5822;51.000;5.874;2024-03-25T06:36:12;8.20;99.90
11532;DHT22;5822;51.000;5.874;2024-03-25T06:38:38;8.20;99.90
11532;DHT22;5822;51.000;5.874;2024-03-25T06:41:03;8.20;99.90
11532;DHT22;5822;51.000;5.874;2024-03-25T06:43:29;8.20;99.90
11532;DHT22;5822;51.000;5.874;2024-03-25T06:45:55;8.20;99.90
11532;DHT22;5822;51.000;5.874;2024-03-25T06:48:20;8.20;99.90
11532;DHT22;5822;51.000;5.874;2024-03-25T06:50:59;8.20;99.90
11532;DHT22;5822;51.000;5.874;2024-03-25T06:53:25;8.30;99.90
11532;DHT22;5822;51.000;5.874;2024-03-25T06:58:19;8.20;99.90
11532;DHT22;5822;51.000;5.874;2024-03-25T07:00:44;8.20;99.90
11532;DHT22;5822;51.000;5.874;2024-03-25T07:03:10;8.30;99.90
11532;DHT22;5822;51.000;5.874;2024-03-25T07:05:36;8.30;99.90
11532;DHT22;5822;51.000;5.874;2024-03-25T07:08:01;8.20;99.90
11532;DHT22;5822;51.000;5.874;2024-03-25T07:10:28;8.20;99.90
11532;DHT22;5822;51.000;5.874;2024-03-25T07:12:53;8.20;99.90
11532;DHT22;5822;51.000;5.874;2024-03-25T07:15:19;8.20;99.90
11532;DHT22;5822;51.000;5.874;2024-03-25T07:17:45;8.20;99.90
11532;DHT22;5822;51.000;5.874;2024-03-25T07:20:10;8.20;99.90
11532;DHT22;5822;51.000;5.874;2024-03-25T07:22:36;8.30;99.90
11532;DHT22;5822;51.000;5.874;2024-03-25T07:25:02;8.30;99.90
11532;DHT22;5822;51.000;5.874;2024-03-25T07:27:27;8.30;99.90
11532;DHT22;5822;51.000;5.874;2024-03-25T07:29:53;8.40;99.90
11532;DHT22;5822;51.000;5.874;2024-03-25T07:32:18;8.50;99.90
11532;DHT22;5822;51.000;5.874;2024-03-25T07:34:44;8.50;99.90
11532;DHT22;5822;51.000;5.874;2024-03-25T07:37:11;8.50;99.90
11532;DHT22;5822;51.000;5.874;2024-03-25T07:39:37;8.60;99.90
11532;DHT22;5822;51.000;5.874;2024-03-25T07:42:02;8.70;99.90
11532;DHT22;5822;51.000;5.874;2024-03-25T07:44:29;8.70;99.90
11532;DHT22;5822;51.000;5.874;2024-03-25T07:46:54;8.80;99.90
11532;DHT22;5822;51.000;5.874;2024-03-25T07:49:21;8.80;99.90
11532;DHT22;5822;51.000;5.874;2024-03-25T07:51:46;8.80;99.90
11532;DHT22;5822;51.000;5.874;2024-03-25T07:54:12;8.80;99.90
11532;DHT22;5822;51.000;5.874;2024-03-25T07:56:42;8.90;99.90
11532;DHT22;5822;51.000;5.874;2024-03-25T07:59:07;8.90;99.90
11532;DHT22;5822;51.000;5.874;2024-03-25T08:01:33;9.00;99.90
11532;DHT22;5822;51.000;5.874;2024-03-25T08:03:58;9.00;99.90
11532;DHT22;5822;51.000;5.874;2024-03-25T08:06:24;9.10;99.90
11532;DHT22;5822;51.000;5.874;2024-03-25T08:08:50;9.20;99.90
11532;DHT22;5822;51.000;5.874;2024-03-25T08:11:15;9.20;99.90
11532;DHT22;5822;51.000;5.874;2024-03-25T08:13:41;9.20;99.90
11532;DHT22;5822;51.000;5.874;2024-03-25T08:16:06;9.30;99.90
11532;DHT22;5822;51.000;5.874;2024-03-25T08:18:33;9.30;99.90
11532;DHT22;5822;51.000;5.874;2024-03-25T08:20:59;9.40;99.90
11532;DHT22;5822;51.000;5.874;2024-03-25T08:23:25;9.40;99.90
11532;DHT22;5822;51.000;5.874;2024-03-25T08:25:50;9.30;99.90
11532;DHT22;5822;51.000;5.874;2024-03-25T08:28:16;9.30;99.90
11532;DHT22;5822;51.000;5.874;2024-03-25T08:30:42;9.40;99.90
11532;DHT22;5822;51.000;5.874;2024-03-25T08:33:07;9.40;99.90
11532;DHT22;5822;51.000;5.874;2024-03-25T08:35:33;9.40;99.90
11532;DHT22;5822;51.000;5.874;2024-03-25T08:37:59;9.40;99.90
11532;DHT22;5822;51.000;5.874;2024-03-25T08:40:24;9.50;99.90
11532;DHT22;5822;51.000;5.874;2024-03-25T08:42:50;9.40;99.90
11532;DHT22;5822;51.000;5.874;2024-03-25T08:45:16;9.60;99.90
11532;DHT22;5822;51.000;5.874;2024-03-25T08:47:42;9.60;99.90
11532;DHT22;5822;51.000;5.874;2024-03-25T08:50:08;9.60;99.90
11532;DHT22;5822;51.000;5.874;2024-03-25T08:52:34;9.70;99.90
11532;DHT22;5822;51.000;5.874;2024-03-25T08:54:59;9.70;99.90
11532;DHT22;5822;51.000;5.874;2024-03-25T08:57:25;9.60;99.90
11532;DHT22;5822;51.000;5.874;2024-03-25T08:59:50;9.70;99.90
11532;DHT22;5822;51.000;5.874;2024-03-25T09:02:16;9.80;99.90
11532;DHT22;5822;51.000;5.874;2024-03-25T09:04:42;9.80;99.90
11532;DHT22;5822;51.000;5.874;2024-03-25T09:07:08;9.80;99.90
11532;DHT22;5822;51.000;5.874;2024-03-25T09:09:34;9.80;99.90
11532;DHT22;5822;51.000;5.874;2024-03-25T09:12:18;9.80;99.90
11532;DHT22;5822;51.000;5.874;2024-03-25T09:14:44;9.80;99.90
11532;DHT22;5822;51.000;5.874;2024-03-25T09:17:09;9.80;99.90
11532;DHT22;5822;51.000;5.874;2024-03-25T09:19:35;9.80;99.90
11532;DHT22;5822;51.000;5.874;2024-03-25T09:22:00;9.90;99.90
11532;DHT22;5822;51.000;5.874;2024-03-25T09:24:26;9.90;99.90
11532;DHT22;5822;51.000;5.874;2024-03-25T09:26:52;10.00;99.90
11532;DHT22;5822;51.000;5.874;2024-03-25T09:29:17;10.00;99.90
11532;DHT22;5822;51.000;5.874;2024-03-25T09:31:43;9.90;99.90
11532;DHT22;5822;51.000;5.874;2024-03-25T09:34:09;9.90;99.90
11532;DHT22;5822;51.000;5.874;2024-03-25T09:36:34;9.90;99.90
11532;DHT22;5822;51.000;5.874;2024-03-25T09:39:00;9.90;99.90
11532;DHT22;5822;51.000;5.874;2024-03-25T09:41:28;9.90;99.90
11532;DHT22;5822;51.000;5.874;2024-03-25T09:43:55;10.00;99.90
11532;DHT22;5822;51.000;5.874;2024-03-25T09:46:23;10.00;99.90
11532;DHT22;5822;51.000;5.874;2024-03-25T09:48:51;10.10;99.90
11532;DHT22;5822;51.000;5.874;2024-03-25T09:51:17;10.10;99.90
11532;DHT22;5822;51.000;5.874;2024-03-25T09:53:43;10.10;99.90
11532;DHT22;5822;51.000;5.874;2024-03-25T09:56:09;10.10;99.90
11532;DHT22;5822;51.000;5.874;2024-03-25T09:58:36;10.10;99.90
11532;DHT22;5822;51.000;5.874;2024-03-25T10:01:01;10.20;99.90
11532;DHT22;5822;51.000;5.874;2024-03-25T10:03:27;10.30;99.90
11532;DHT22;5822;51.000;5.874;2024-03-25T10:05:53;10.30;99.90
11532;DHT22;5822;51.000;5.874;2024-03-25T10:08:22;10.50;99.90
11532;DHT22;5822;51.000;5.874;2024-03-25T10:10:47;10.40;99.90
11532;DHT22;5822;51.000;5.874;2024-03-25T10:13:15;10.40;99.90
11532;DHT22;5822;51.000;5.874;2024-03-25T10:15:41;10.40;99.90
11532;DHT22;5822;51.000;5.874;2024-03-25T10:18:06;10.50;99.90
11532;DHT22;5822;51.000;5.874;2024-03-25T10:20:33;10.50;99.90
11532;DHT22;5822;51.000;5.874;2024-03-25T10:23:00;10.60;99.90
11532;DHT22;5822;51.000;5.874;2024-03-25T10:25:27;10.60;99.90
11532;DHT22;5822;51.000;5.874;2024-03-25T10:27:57;10.60;99.90
11532;DHT22;5822;51.000;5.874;2024-03-25T10:30:23;10.50;99.90
11532;DHT22;5822;51.000;5.874;2024-03-25T10:32:59;10.50;99.90
11532;DHT22;5822;51.000;5.874;2024-03-25T10:35:29;10.70;99.90
11532;DHT22;5822;51.000;5.874;2024-03-25T10:38:00;10.60;99.90
11532;DHT22;5822;51.000;5.874;2024-03-25T10:40:32;10.60;99.90
11532;DHT22;5822;51.000;5.874;2024-03-25T10:43:06;10.60;99.90
11532;DHT22;5822;51.000;5.874;2024-03-25T10:45:34;10.60;99.90
11532;DHT22;5822;51.000;5.874;2024-03-25T10:48:09;10.70;99.90
11532;DHT22;5822;51.000;5.874;2024-03-25T10:50:37;10.80;99.90
11532;DHT22;5822;51.000;5.874;2024-03-25T10:53:04;10.80;99.90
11532;DHT22;5822;51.000;5.874;2024-03-25T10:55:31;10.90;99.90
11532;DHT22;5822;51.000;5.874;2024-03-25T10:57:59;10.90;99.90
11532;DHT22;5822;51.000;5.874;2024-03-25T11:00:26;10.90;99.90
11532;DHT22;5822;51.000;5.874;2024-03-25T11:02:52;10.90;99.90
11532;DHT22;5822;51.000;5.874;2024-03-25T11:05:20;10.90;99.90
11532;DHT22;5822;51.000;5.874;2024-03-25T11:07:46;11.00;99.90
11532;DHT22;5822;51.000;5.874;2024-03-25T11:10:12;11.00;99.90
11532;DHT22;5822;51.000;5.874;2024-03-25T11:12:40;11.00;99.90
11532;DHT22;5822;51.000;5.874;2024-03-25T11:15:06;11.00;99.90
11532;DHT22;5822;51.000;5.874;2024-03-25T11:17:36;11.00;99.90
11532;DHT22;5822;51.000;5.874;2024-03-25T11:20:12;11.00;99.90
11532;DHT22;5822;51.000;5.874;2024-03-25T11:22:52;11.00;99.90
11532;DHT22;5822;51.000;5.874;2024-03-25T11:25:20;11.10;99.90
11532;DHT22;5822;51.000;5.874;2024-03-25T11:27:46;11.10;99.90
11532;DHT22;5822;51.000;5.874;2024-03-25T11:30:15;11.20;99.90
11532;DHT22;5822;51.000;5.874;2024-03-25T11:32:55;11.20;99.90
11532;DHT22;5822;51.000;5.874;2024-03-25T11:35:20;11.20;99.90
11532;DHT22;5822;51.000;5.874;2024-03-25T11:37:46;11.10;99.90
11532;DHT22;5822;51.000;5.874;2024-03-25T11:40:13;11.20;99.90
11532;DHT22;5822;51.000;5.874;2024-03-25T11:42:43;11.20;99.90
11532;DHT22;5822;51.000;5.874;2024-03-25T11:45:22;11.20;99.90
11532;DHT22;5822;51.000;5.874;2024-03-25T11:47:49;11.10;99.90
11532;DHT22;5822;51.000;5.874;2024-03-25T11:50:16;11.20;99.90
11532;DHT22;5822;51.000;5.874;2024-03-25T11:52:43;11.20;99.90
11532;DHT22;5822;51.000;5.874;2024-03-25T11:55:09;11.10;99.90
11532;DHT22;5822;51.000;5.874;2024-03-25T11:57:37;11.10;99.90
11532;DHT22;5822;51.000;5.874;2024-03-25T12:00:04;11.20;99.90
11532;DHT22;5822;51.000;5.874;2024-03-25T12:02:32;11.20;99.90
11532;DHT22;5822;51.000;5.874;2024-03-25T12:04:58;11.20;99.90
11532;DHT22;5822;51.000;5.874;2024-03-25T12:07:23;11.30;99.90
11532;DHT22;5822;51.000;5.874;2024-03-25T12:09:49;11.40;99.90
11532;DHT22;5822;51.000;5.874;2024-03-25T12:12:33;11.40;99.90
11532;DHT22;5822;51.000;5.874;2024-03-25T12:15:00;11.40;99.90
11532;DHT22;5822;51.000;5.874;2024-03-25T12:17:28;11.40;99.90
11532;DHT22;5822;51.000;5.874;2024-03-25T12:20:08;11.50;99.90
11532;DHT22;5822;51.000;5.874;2024-03-25T12:22:35;11.50;99.90
11532;DHT22;5822;51.000;5.874;2024-03-25T12:25:05;11.50;99.90
11532;DHT22;5822;51.000;5.874;2024-03-25T12:27:32;11.50;99.90
11532;DHT22;5822;51.000;5.874;2024-03-25T12:32:40;11.50;99.90
11532;DHT22;5822;51.000;5.874;2024-03-25T12:35:12;11.60;99.90
11532;DHT22;5822;51.000;5.874;2024-03-25T12:37:41;11.70;99.90
11532;DHT22;5822;51.000;5.874;2024-03-25T12:40:09;11.80;99.90
11532;DHT22;5822;51.000;5.874;2024-03-25T12:42:36;11.80;99.90
11532;DHT22;5822;51.000;5.874;2024-03-25T12:45:02;11.80;99.90
11532;DHT22;5822;51.000;5.874;2024-03-25T12:47:28;11.70;99.90
11532;DHT22;5822;51.000;5.874;2024-03-25T12:49:54;11.70;99.90
11532;DHT22;5822;51.000;5.874;2024-03-25T12:52:20;11.70;99.90
11532;DHT22;5822;51.000;5.874;2024-03-25T12:54:46;11.70;99.90
11532;DHT22;5822;51.000;5.874;2024-03-25T12:57:12;11.70;99.90
11532;DHT22;5822;51.000;5.874;2024-03-25T12:59:38;11.70;99.90
11532;DHT22;5822;51.000;5.874;2024-03-25T13:02:04;11.70;99.90
11532;DHT22;5822;51.000;5.874;2024-03-25T13:04:29;11.80;99.90
11532;DHT22;5822;51.000;5.874;2024-03-25T13:06:55;11.80;99.90
11532;DHT22;5822;51.000;5.874;2024-03-25T13:09:21;11.80;99.90
11532;DHT22;5822;51.000;5.874;2024-03-25T13:11:47;11.80;99.90
11532;DHT22;5822;51.000;5.874;2024-03-25T13:14:13;11.80;99.90
11532;DHT22;5822;51.000;5.874;2024-03-25T13:16:39;11.80;99.90
11532;DHT22;5822;51.000;5.874;2024-03-25T13:19:06;11.90;99.90
11532;DHT22;5822;51.000;5.874;2024-03-25T13:21:31;11.90;99.90
11532;DHT22;5822;51.000;5.874;2024-03-25T13:23:58;11.90;99.90
11532;DHT22;5822;51.000;5.874;2024-03-25T13:26:23;11.90;99.90
11532;DHT22;5822;51.000;5.874;2024-03-25T13:28:49;11.90;99.90
11532;DHT22;5822;51.000;5.874;2024-03-25T13:31:15;12.00;99.90
11532;DHT22;5822;51.000;5.874;2024-03-25T13:33:41;12.10;99.90
11532;DHT22;5822;51.000;5.874;2024-03-25T13:36:07;12.10;99.90
11532;DHT22;5822;51.000;5.874;2024-03-25T13:38:33;12.20;99.90
11532;DHT22;5822;51.000;5.874;2024-03-25T13:41:03;12.20;99.90
11532;DHT22;5822;51.000;5.874;2024-03-25T13:43:28;12.30;99.90
11532;DHT22;5822;51.000;5.874;2024-03-25T13:45:54;12.40;99.90
11532;DHT22;5822;51.000;5.874;2024-03-25T13:48:20;12.50;99.90
11532;DHT22;5822;51.000;5.874;2024-03-25T13:50:46;12.70;99.90
11532;DHT22;5822;51.000;5.874;2024-03-25T13:53:11;12.80;99.90
11532;DHT22;5822;51.000;5.874;2024-03-25T13:55:37;12.90;99.90
11532;DHT22;5822;51.000;5.874;2024-03-25T13:58:03;13.00;99.90
11532;DHT22;5822;51.000;5.874;2024-03-25T14:00:30;13.10;99.90
11532;DHT22;5822;51.000;5.874;2024-03-25T14:02:57;13.30;99.90
11532;DHT22;5822;51.000;5.874;2024-03-25T14:05:23;13.40;99.90
11532;DHT22;5822;51.000;5.874;2024-03-25T14:07:49;13.50;99.90
11532;DHT22;5822;51.000;5.874;2024-03-25T14:10:15;13.50;99.90
11532;DHT22;5822;51.000;5.874;2024-03-25T14:12:43;13.50;99.90
11532;DHT22;5822;51.000;5.874;2024-03-25T14:15:09;13.60;99.90
11532;DHT22;5822;51.000;5.874;2024-03-25T14:17:35;13.70;99.90
11532;DHT22;5822;51.000;5.874;2024-03-25T14:20:01;13.70;99.90
11532;DHT22;5822;51.000;5.874;2024-03-25T14:22:27;13.80;99.90
11532;DHT22;5822;51.000;5.874;2024-03-25T14:24:53;13.70;99.90
11532;DHT22;5822;51.000;5.874;2024-03-25T14:27:23;13.70;99.90
11532;DHT22;5822;51.000;5.874;2024-03-25T14:29:49;13.70;99.90
11532;DHT22;5822;51.000;5.874;2024-03-25T14:32:14;13.80;99.90
11532;DHT22;5822;51.000;5.874;2024-03-25T14:34:40;13.90;99.90
11532;DHT22;5822;51.000;5.874;2024-03-25T14:37:05;13.90;99.90
11532;DHT22;5822;51.000;5.874;2024-03-25T14:39:31;13.90;99.90
11532;DHT22;5822;51.000;5.874;2024-03-25T14:41:57;13.90;99.90
11532;DHT22;5822;51.000;5.874;2024-03-25T14:44:22;13.90;99.90
11532;DHT22;5822;51.000;5.874;2024-03-25T14:46:48;13.90;99.90
11532;DHT22;5822;51.000;5.874;2024-03-25T14:49:13;13.90;99.90
11532;DHT22;5822;51.000;5.874;2024-03-25T14:51:39;13.90;99.90
11532;DHT22;5822;51.000;5.874;2024-03-25T14:54:06;13.80;99.90
11532;DHT22;5822;51.000;5.874;2024-03-25T14:56:32;13.80;99.90
11532;DHT22;5822;51.000;5.874;2024-03-25T14:58:58;13.80;99.90
11532;DHT22;5822;51.000;5.874;2024-03-25T15:01:24;13.80;99.90
11532;DHT22;5822;51.000;5.874;2024-03-25T15:03:50;13.80;99.90
11532;DHT22;5822;51.000;5.874;2024-03-25T15:06:15;13.90;99.90
11532;DHT22;5822;51.000;5.874;2024-03-25T15:08:41;13.90;99.90
11532;DHT22;5822;51.000;5.874;2024-03-25T15:11:07;13.90;99.90
11532;DHT22;5822;51.000;5.874;2024-03-25T15:13:33;13.80;99.90
11532;DHT22;5822;51.000;5.874;2024-03-25T15:16:03;13.80;99.90
11532;DHT22;5822;51.000;5.874;2024-03-25T15:18:29;13.90;99.90
11532;DHT22;5822;51.000;5.874;2024-03-25T15:21:02;13.90;99.90
11532;DHT22;5822;51.000;5.874;2024-03-25T15:23:28;13.80;99.90
11532;DHT22;5822;51.000;5.874;2024-03-25T15:25:54;13.80;99.90
11532;DHT22;5822;51.000;5.874;2024-03-25T15:28:20;13.90;99.90
11532;DHT22;5822;51.000;5.874;2024-03-25T15:30:49;13.90;99.90
11532;DHT22;5822;51.000;5.874;2024-03-25T15:33:15;13.80;99.90
11532;DHT22;5822;51.000;5.874;2024-03-25T15:35:40;13.80;99.90
11532;DHT22;5822;51.000;5.874;2024-03-25T15:38:06;13.80;99.90
11532;DHT22;5822;51.000;5.874;2024-03-25T15:40:32;13.80;99.90
11532;DHT22;5822;51.000;5.874;2024-03-25T15:42:58;13.70;99.90
11532;DHT22;5822;51.000;5.874;2024-03-25T15:45:26;13.30;99.90
11532;DHT22;5822;51.000;5.874;2024-03-25T15:47:53;13.70;99.90
11532;DHT22;5822;51.000;5.874;2024-03-25T15:50:18;13.60;99.90
11532;DHT22;5822;51.000;5.874;2024-03-25T15:52:44;13.60;99.90
11532;DHT22;5822;51.000;5.874;2024-03-25T15:55:10;13.60;99.90